sensor_id;sensor_type;location;lat;lon;timestamp;temperature;humidity
40534;DHT22;26233;51.894;10.192;2023-01-29T00:02:05;0.20;49.90
40534;DHT22;26233;51.894;10.192;2023-01-29T00:04:32;0.30;50.10
40534;DHT22;26233;51.894;10.192;2023-01-29T00:06:59;0.30;50.10
40534;DHT22;26233;51.894;10.192;2023-01-29T00:09:28;0.40;50.20
40534;DHT22;26233;51.894;10.192;2023-01-29T00:11:56;0.40;50.20
40534;DHT22;26233;51.894;10.192;2023-01-29T00:14:23;0.40;50.50
40534;DHT22;26233;51.894;10.192;2023-01-29T00:16:50;0.50;50.40
40534;DHT22;26233;51.894;10.192;2023-01-29T00:19:18;0.50;50.40
40534;DHT22;26233;51.894;10.192;2023-01-29T00:21:45;0.60;50.40
40534;DHT22;26233;51.894;10.192;2023-01-29T00:24:12;0.60;50.30
40534;DHT22;26233;51.894;10.192;2023-01-29T00:26:41;0.70;50.30
40534;DHT22;26233;51.894;10.192;2023-01-29T00:29:08;0.70;50.20
40534;DHT22;26233;51.894;10.192;2023-01-29T00:31:37;0.70;50.20
40534;DHT22;26233;51.894;10.192;2023-01-29T00:34:04;0.80;50.20
40534;DHT22;26233;51.894;10.192;2023-01-29T00:36:31;0.70;50.00
40534;DHT22;26233;51.894;10.192;2023-01-29T00:39:00;0.90;50.10
40534;DHT22;26233;51.894;10.192;2023-01-29T00:41:35;0.70;50.00
40534;DHT22;26233;51.894;10.192;2023-01-29T00:44:33;0.80;50.00
40534;DHT22;26233;51.894;10.192;2023-01-29T00:47:14;0.70;49.90
40534;DHT22;26233;51.894;10.192;2023-01-29T00:50:03;0.70;49.90
40534;DHT22;26233;51.894;10.192;2023-01-29T00:52:32;0.70;49.80
40534;DHT22;26233;51.894;10.192;2023-01-29T00:55:03;0.70;49.80
40534;DHT22;26233;51.894;10.192;2023-01-29T00:57:32;0.70;49.90
40534;DHT22;26233;51.894;10.192;2023-01-29T01:00:02;0.70;50.00
40534;DHT22;26233;51.894;10.192;2023-01-29T01:02:30;0.70;50.00
40534;DHT22;26233;51.894;10.192;2023-01-29T01:05:16;0.70;50.00
40534;DHT22;26233;51.894;10.192;2023-01-29T01:07:44;0.70;50.00
40534;DHT22;26233;51.894;10.192;2023-01-29T01:10:14;0.70;50.00
40534;DHT22;26233;51.894;10.192;2023-01-29T01:12:49;0.70;50.00
40534;DHT22;26233;51.894;10.192;2023-01-29T01:15:21;0.70;50.10
40534;DHT22;26233;51.894;10.192;2023-01-29T01:17:52;0.70;50.10
40534;DHT22;26233;51.894;10.192;2023-01-29T01:20:19;0.70;50.20
40534;DHT22;26233;51.894;10.192;2023-01-29T01:22:47;0.70;50.20
40534;DHT22;26233;51.894;10.192;2023-01-29T01:25:15;0.80;50.40
40534;DHT22;26233;51.894;10.192;2023-01-29T01:27:43;0.80;50.30
40534;DHT22;26233;51.894;10.192;2023-01-29T01:30:13;0.80;50.30
40534;DHT22;26233;51.894;10.192;2023-01-29T01:32:43;0.80;50.10
40534;DHT22;26233;51.894;10.192;2023-01-29T01:35:10;0.80;50.10
40534;DHT22;26233;51.894;10.192;2023-01-29T01:37:39;0.90;50.10
40534;DHT22;26233;51.894;10.192;2023-01-29T01:40:10;0.90;50.10
40534;DHT22;26233;51.894;10.192;2023-01-29T01:42:46;0.90;50.00
40534;DHT22;26233;51.894;10.192;2023-01-29T01:45:18;0.80;50.00
40534;DHT22;26233;51.894;10.192;2023-01-29T01:47:53;0.80;50.00
40534;DHT22;26233;51.894;10.192;2023-01-29T01:50:26;0.80;50.10
40534;DHT22;26233;51.894;10.192;2023-01-29T01:52:58;0.80;50.10
40534;DHT22;26233;51.894;10.192;2023-01-29T01:55:29;0.90;50.10
40534;DHT22;26233;51.894;10.192;2023-01-29T01:58:03;0.80;50.10
40534;DHT22;26233;51.894;10.192;2023-01-29T02:00:34;0.80;50.00
40534;DHT22;26233;51.894;10.192;2023-01-29T02:03:03;0.80;50.00
40534;DHT22;26233;51.894;10.192;2023-01-29T02:05:50;0.80;50.10
40534;DHT22;26233;51.894;10.192;2023-01-29T02:08:40;0.80;50.20
40534;DHT22;26233;51.894;10.192;2023-01-29T02:11:28;0.80;50.20
40534;DHT22;26233;51.894;10.192;2023-01-29T02:13:56;0.80;50.30
40534;DHT22;26233;51.894;10.192;2023-01-29T02:16:23;0.90;50.40
40534;DHT22;26233;51.894;10.192;2023-01-29T02:18:52;0.90;50.40
40534;DHT22;26233;51.894;10.192;2023-01-29T02:21:33;0.90;50.40
40534;DHT22;26233;51.894;10.192;2023-01-29T02:24:25;0.90;50.30
40534;DHT22;26233;51.894;10.192;2023-01-29T02:27:27;0.90;50.20
40534;DHT22;26233;51.894;10.192;2023-01-29T02:30:07;0.90;50.10
40534;DHT22;26233;51.894;10.192;2023-01-29T02:32:40;0.90;50.00
40534;DHT22;26233;51.894;10.192;2023-01-29T02:35:24;0.90;49.90
40534;DHT22;26233;51.894;10.192;2023-01-29T02:37:56;0.90;49.90
40534;DHT22;26233;51.894;10.192;2023-01-29T02:40:33;0.80;49.90
40534;DHT22;26233;51.894;10.192;2023-01-29T02:43:07;0.80;50.00
40534;DHT22;26233;51.894;10.192;2023-01-29T02:45:47;0.80;50.00
40534;DHT22;26233;51.894;10.192;2023-01-29T02:48:18;0.90;50.20
40534;DHT22;26233;51.894;10.192;2023-01-29T02:50:52;0.90;50.20
40534;DHT22;26233;51.894;10.192;2023-01-29T02:53:28;0.90;50.20
40534;DHT22;26233;51.894;10.192;2023-01-29T02:56:02;0.80;50.20
40534;DHT22;26233;51.894;10.192;2023-01-29T02:58:38;0.90;50.90
40534;DHT22;26233;51.894;10.192;2023-01-29T03:01:14;0.90;50.30
40534;DHT22;26233;51.894;10.192;2023-01-29T03:03:47;0.90;50.30
40534;DHT22;26233;51.894;10.192;2023-01-29T03:06:19;0.90;50.30
40534;DHT22;26233;51.894;10.192;2023-01-29T03:08:53;0.90;50.30
40534;DHT22;26233;51.894;10.192;2023-01-29T03:11:22;0.90;50.30
40534;DHT22;26233;51.894;10.192;2023-01-29T03:13:51;1.00;50.40
40534;DHT22;26233;51.894;10.192;2023-01-29T03:16:28;1.00;50.50
40534;DHT22;26233;51.894;10.192;2023-01-29T03:19:01;1.00;50.40
40534;DHT22;26233;51.894;10.192;2023-01-29T03:21:32;1.00;50.40
40534;DHT22;26233;51.894;10.192;2023-01-29T03:24:21;1.00;50.40
40534;DHT22;26233;51.894;10.192;2023-01-29T03:27:11;1.00;50.40
40534;DHT22;26233;51.894;10.192;2023-01-29T03:29:59;1.10;50.50
40534;DHT22;26233;51.894;10.192;2023-01-29T03:32:47;1.10;50.50
40534;DHT22;26233;51.894;10.192;2023-01-29T03:35:20;1.10;50.60
40534;DHT22;26233;51.894;10.192;2023-01-29T03:38:02;1.10;50.60
40534;DHT22;26233;51.894;10.192;2023-01-29T03:40:43;1.20;50.70
40534;DHT22;26233;51.894;10.192;2023-01-29T03:43:18;1.20;50.50
40534;DHT22;26233;51.894;10.192;2023-01-29T03:45:58;1.20;50.60
40534;DHT22;26233;51.894;10.192;2023-01-29T03:48:32;1.20;50.60
40534;DHT22;26233;51.894;10.192;2023-01-29T03:51:10;1.30;50.70
40534;DHT22;26233;51.894;10.192;2023-01-29T03:53:43;1.30;50.70
40534;DHT22;26233;51.894;10.192;2023-01-29T03:56:23;1.30;50.70
40534;DHT22;26233;51.894;10.192;2023-01-29T03:59:00;1.30;50.60
40534;DHT22;26233;51.894;10.192;2023-01-29T04:01:34;1.40;50.80
40534;DHT22;26233;51.894;10.192;2023-01-29T04:04:12;1.40;50.80
40534;DHT22;26233;51.894;10.192;2023-01-29T04:06:42;1.40;50.80
40534;DHT22;26233;51.894;10.192;2023-01-29T04:09:16;1.50;51.00
40534;DHT22;26233;51.894;10.192;2023-01-29T04:11:48;1.50;50.90
40534;DHT22;26233;51.894;10.192;2023-01-29T04:14:16;1.50;50.80
40534;DHT22;26233;51.894;10.192;2023-01-29T04:16:48;1.50;50.80
40534;DHT22;26233;51.894;10.192;2023-01-29T04:19:22;1.60;50.80
40534;DHT22;26233;51.894;10.192;2023-01-29T04:21:59;1.60;50.90
40534;DHT22;26233;51.894;10.192;2023-01-29T04:24:29;1.60;50.70
40534;DHT22;26233;51.894;10.192;2023-01-29T04:27:09;1.60;51.20
40534;DHT22;26233;51.894;10.192;2023-01-29T04:30:02;1.70;50.70
40534;DHT22;26233;51.894;10.192;2023-01-29T04:32:44;1.70;50.70
40534;DHT22;26233;51.894;10.192;2023-01-29T04:35:27;1.70;50.70
40534;DHT22;26233;51.894;10.192;2023-01-29T04:38:07;1.70;50.70
40534;DHT22;26233;51.894;10.192;2023-01-29T04:40:47;1.70;50.70
40534;DHT22;26233;51.894;10.192;2023-01-29T04:43:22;1.70;50.80
40534;DHT22;26233;51.894;10.192;2023-01-29T04:46:07;1.70;50.70
40534;DHT22;26233;51.894;10.192;2023-01-29T04:48:50;1.70;50.60
40534;DHT22;26233;51.894;10.192;2023-01-29T04:51:35;1.80;50.70
40534;DHT22;26233;51.894;10.192;2023-01-29T04:54:27;1.70;50.60
40534;DHT22;26233;51.894;10.192;2023-01-29T04:57:06;1.70;50.60
40534;DHT22;26233;51.894;10.192;2023-01-29T04:59:40;1.70;50.60
40534;DHT22;26233;51.894;10.192;2023-01-29T05:02:12;1.70;50.70
40534;DHT22;26233;51.894;10.192;2023-01-29T05:04:40;1.70;50.70
40534;DHT22;26233;51.894;10.192;2023-01-29T05:07:16;1.60;50.50
40534;DHT22;26233;51.894;10.192;2023-01-29T05:09:44;1.70;50.40
40534;DHT22;26233;51.894;10.192;2023-01-29T05:12:13;1.60;50.40
40534;DHT22;26233;51.894;10.192;2023-01-29T05:14:44;1.60;50.50
40534;DHT22;26233;51.894;10.192;2023-01-29T05:17:14;1.60;50.50
40534;DHT22;26233;51.894;10.192;2023-01-29T05:19:42;1.60;50.50
40534;DHT22;26233;51.894;10.192;2023-01-29T05:22:12;1.60;50.50
40534;DHT22;26233;51.894;10.192;2023-01-29T05:24:42;1.50;50.40
40534;DHT22;26233;51.894;10.192;2023-01-29T05:27:15;1.50;50.40
40534;DHT22;26233;51.894;10.192;2023-01-29T05:30:01;1.50;50.40
40534;DHT22;26233;51.894;10.192;2023-01-29T05:32:29;1.50;50.40
40534;DHT22;26233;51.894;10.192;2023-01-29T05:34:56;1.50;50.50
40534;DHT22;26233;51.894;10.192;2023-01-29T05:37:25;1.50;50.50
40534;DHT22;26233;51.894;10.192;2023-01-29T05:39:52;1.50;50.60
40534;DHT22;26233;51.894;10.192;2023-01-29T05:42:19;1.40;50.50
40534;DHT22;26233;51.894;10.192;2023-01-29T05:44:46;1.40;50.50
40534;DHT22;26233;51.894;10.192;2023-01-29T05:47:17;1.50;50.70
40534;DHT22;26233;51.894;10.192;2023-01-29T05:49:44;1.40;50.70
40534;DHT22;26233;51.894;10.192;2023-01-29T05:52:11;1.50;50.70
40534;DHT22;26233;51.894;10.192;2023-01-29T05:54:39;1.50;50.50
40534;DHT22;26233;51.894;10.192;2023-01-29T05:57:06;1.50;50.50
40534;DHT22;26233;51.894;10.192;2023-01-29T05:59:36;1.40;50.50
40534;DHT22;26233;51.894;10.192;2023-01-29T06:02:04;1.50;50.50
40534;DHT22;26233;51.894;10.192;2023-01-29T06:04:31;1.40;50.50
40534;DHT22;26233;51.894;10.192;2023-01-29T06:06:58;1.40;50.20
40534;DHT22;26233;51.894;10.192;2023-01-29T06:09:25;1.40;50.40
40534;DHT22;26233;51.894;10.192;2023-01-29T06:11:54;1.40;50.40
40534;DHT22;26233;51.894;10.192;2023-01-29T06:14:21;1.40;50.40
40534;DHT22;26233;51.894;10.192;2023-01-29T06:16:52;1.40;50.50
40534;DHT22;26233;51.894;10.192;2023-01-29T06:19:19;1.40;50.60
40534;DHT22;26233;51.894;10.192;2023-01-29T06:21:48;1.40;50.50
40534;DHT22;26233;51.894;10.192;2023-01-29T06:24:15;1.40;50.50
40534;DHT22;26233;51.894;10.192;2023-01-29T06:26:42;1.40;50.50
40534;DHT22;26233;51.894;10.192;2023-01-29T06:29:10;1.40;50.60
40534;DHT22;26233;51.894;10.192;2023-01-29T06:31:37;1.40;50.70
40534;DHT22;26233;51.894;10.192;2023-01-29T06:34:05;1.40;50.60
40534;DHT22;26233;51.894;10.192;2023-01-29T06:36:32;1.40;50.70
40534;DHT22;26233;51.894;10.192;2023-01-29T06:38:59;1.40;50.70
40534;DHT22;26233;51.894;10.192;2023-01-29T06:41:26;1.40;50.70
40534;DHT22;26233;51.894;10.192;2023-01-29T06:43:53;1.50;50.70
40534;DHT22;26233;51.894;10.192;2023-01-29T06:46:21;1.50;50.80
40534;DHT22;26233;51.894;10.192;2023-01-29T06:48:48;1.50;50.70
40534;DHT22;26233;51.894;10.192;2023-01-29T06:51:15;1.50;50.60
40534;DHT22;26233;51.894;10.192;2023-01-29T06:53:42;1.50;50.70
40534;DHT22;26233;51.894;10.192;2023-01-29T06:56:09;1.50;50.70
40534;DHT22;26233;51.894;10.192;2023-01-29T06:58:37;1.60;50.80
40534;DHT22;26233;51.894;10.192;2023-01-29T07:01:05;1.60;50.80
40534;DHT22;26233;51.894;10.192;2023-01-29T07:03:34;1.60;50.70
40534;DHT22;26233;51.894;10.192;2023-01-29T07:06:01;1.60;50.80
40534;DHT22;26233;51.894;10.192;2023-01-29T07:08:29;1.60;50.80
40534;DHT22;26233;51.894;10.192;2023-01-29T07:10:58;1.60;50.70
40534;DHT22;26233;51.894;10.192;2023-01-29T07:13:25;1.60;50.60
40534;DHT22;26233;51.894;10.192;2023-01-29T07:15:52;1.60;50.70
40534;DHT22;26233;51.894;10.192;2023-01-29T07:18:21;1.60;50.70
40534;DHT22;26233;51.894;10.192;2023-01-29T07:20:49;1.60;50.70
40534;DHT22;26233;51.894;10.192;2023-01-29T07:23:16;1.70;50.70
40534;DHT22;26233;51.894;10.192;2023-01-29T07:25:43;1.70;50.70
40534;DHT22;26233;51.894;10.192;2023-01-29T07:28:11;1.70;50.80
40534;DHT22;26233;51.894;10.192;2023-01-29T07:30:38;1.70;50.80
40534;DHT22;26233;51.894;10.192;2023-01-29T07:33:06;1.70;50.70
40534;DHT22;26233;51.894;10.192;2023-01-29T07:35:39;1.70;50.80
40534;DHT22;26233;51.894;10.192;2023-01-29T07:38:09;1.70;50.90
40534;DHT22;26233;51.894;10.192;2023-01-29T07:40:37;1.70;50.80
40534;DHT22;26233;51.894;10.192;2023-01-29T07:43:08;1.80;50.90
40534;DHT22;26233;51.894;10.192;2023-01-29T07:45:36;1.80;51.00
40534;DHT22;26233;51.894;10.192;2023-01-29T07:48:05;1.80;50.90
40534;DHT22;26233;51.894;10.192;2023-01-29T07:50:35;1.80;50.80
40534;DHT22;26233;51.894;10.192;2023-01-29T07:53:02;1.80;51.00
40534;DHT22;26233;51.894;10.192;2023-01-29T07:55:34;1.80;51.10
40534;DHT22;26233;51.894;10.192;2023-01-29T07:58:02;1.90;51.10
40534;DHT22;26233;51.894;10.192;2023-01-29T08:00:31;1.90;51.00
40534;DHT22;26233;51.894;10.192;2023-01-29T08:03:02;1.90;51.00
40534;DHT22;26233;51.894;10.192;2023-01-29T08:05:37;1.90;51.00
40534;DHT22;26233;51.894;10.192;2023-01-29T08:08:04;1.90;51.00
40534;DHT22;26233;51.894;10.192;2023-01-29T08:10:33;2.00;51.00
40534;DHT22;26233;51.894;10.192;2023-01-29T08:13:01;1.90;50.90
40534;DHT22;26233;51.894;10.192;2023-01-29T08:15:30;1.90;51.00
40534;DHT22;26233;51.894;10.192;2023-01-29T08:17:57;1.90;50.90
40534;DHT22;26233;51.894;10.192;2023-01-29T08:20:26;1.90;51.00
40534;DHT22;26233;51.894;10.192;2023-01-29T08:22:58;1.90;50.90
40534;DHT22;26233;51.894;10.192;2023-01-29T08:25:26;1.90;50.90
40534;DHT22;26233;51.894;10.192;2023-01-29T08:27:55;1.90;50.90
40534;DHT22;26233;51.894;10.192;2023-01-29T08:30:23;1.90;50.90
40534;DHT22;26233;51.894;10.192;2023-01-29T08:32:51;1.90;51.00
40534;DHT22;26233;51.894;10.192;2023-01-29T08:35:20;1.90;50.90
40534;DHT22;26233;51.894;10.192;2023-01-29T08:37:52;1.90;50.80
40534;DHT22;26233;51.894;10.192;2023-01-29T08:40:19;1.90;51.00
40534;DHT22;26233;51.894;10.192;2023-01-29T08:42:47;1.90;50.90
40534;DHT22;26233;51.894;10.192;2023-01-29T08:45:15;2.00;51.00
40534;DHT22;26233;51.894;10.192;2023-01-29T08:47:49;2.00;50.90
40534;DHT22;26233;51.894;10.192;2023-01-29T08:50:16;2.00;51.20
40534;DHT22;26233;51.894;10.192;2023-01-29T08:52:45;2.00;51.10
40534;DHT22;26233;51.894;10.192;2023-01-29T08:55:12;2.00;51.10
40534;DHT22;26233;51.894;10.192;2023-01-29T08:57:40;2.00;51.20
40534;DHT22;26233;51.894;10.192;2023-01-29T09:00:09;2.10;51.30
40534;DHT22;26233;51.894;10.192;2023-01-29T09:02:40;2.10;51.20
40534;DHT22;26233;51.894;10.192;2023-01-29T09:05:09;2.10;51.30
40534;DHT22;26233;51.894;10.192;2023-01-29T09:07:36;2.10;51.50
40534;DHT22;26233;51.894;10.192;2023-01-29T09:10:03;2.10;51.20
40534;DHT22;26233;51.894;10.192;2023-01-29T09:12:31;2.10;51.20
40534;DHT22;26233;51.894;10.192;2023-01-29T09:14:58;2.10;51.10
40534;DHT22;26233;51.894;10.192;2023-01-29T09:17:25;2.20;51.20
40534;DHT22;26233;51.894;10.192;2023-01-29T09:19:55;2.20;51.10
40534;DHT22;26233;51.894;10.192;2023-01-29T09:22:23;2.20;51.20
40534;DHT22;26233;51.894;10.192;2023-01-29T09:24:50;2.20;51.20
40534;DHT22;26233;51.894;10.192;2023-01-29T09:27:17;2.20;51.20
40534;DHT22;26233;51.894;10.192;2023-01-29T09:29:44;2.20;51.30
40534;DHT22;26233;51.894;10.192;2023-01-29T09:32:11;2.20;51.40
40534;DHT22;26233;51.894;10.192;2023-01-29T09:34:38;2.20;51.40
40534;DHT22;26233;51.894;10.192;2023-01-29T09:37:09;2.20;51.50
40534;DHT22;26233;51.894;10.192;2023-01-29T09:39:36;2.20;51.40
40534;DHT22;26233;51.894;10.192;2023-01-29T09:42:09;2.30;51.70
40534;DHT22;26233;51.894;10.192;2023-01-29T09:44:48;2.30;51.60
40534;DHT22;26233;51.894;10.192;2023-01-29T09:47:23;2.50;51.80
40534;DHT22;26233;51.894;10.192;2023-01-29T09:49:57;2.50;52.00
40534;DHT22;26233;51.894;10.192;2023-01-29T09:52:31;2.60;51.90
40534;DHT22;26233;51.894;10.192;2023-01-29T09:55:04;2.60;51.80
40534;DHT22;26233;51.894;10.192;2023-01-29T09:57:43;2.70;51.90
40534;DHT22;26233;51.894;10.192;2023-01-29T10:00:14;2.70;51.70
40534;DHT22;26233;51.894;10.192;2023-01-29T10:03:12;2.80;51.70
40534;DHT22;26233;51.894;10.192;2023-01-29T10:06:01;2.80;51.60
40534;DHT22;26233;51.894;10.192;2023-01-29T10:09:13;2.80;51.30
40534;DHT22;26233;51.894;10.192;2023-01-29T10:12:11;2.90;51.50
40534;DHT22;26233;51.894;10.192;2023-01-29T10:14:55;2.90;51.70
40534;DHT22;26233;51.894;10.192;2023-01-29T10:17:41;3.00;51.70
40534;DHT22;26233;51.894;10.192;2023-01-29T10:20:28;3.00;51.90
40534;DHT22;26233;51.894;10.192;2023-01-29T10:23:20;3.00;51.40
40534;DHT22;26233;51.894;10.192;2023-01-29T10:25:51;3.00;51.20
40534;DHT22;26233;51.894;10.192;2023-01-29T10:28:24;3.00;51.40
40534;DHT22;26233;51.894;10.192;2023-01-29T10:30:56;3.00;51.50
40534;DHT22;26233;51.894;10.192;2023-01-29T10:33:29;3.10;51.60
40534;DHT22;26233;51.894;10.192;2023-01-29T10:36:02;3.10;51.60
40534;DHT22;26233;51.894;10.192;2023-01-29T10:38:39;3.10;51.70
40534;DHT22;26233;51.894;10.192;2023-01-29T10:41:41;3.20;51.80
40534;DHT22;26233;51.894;10.192;2023-01-29T10:44:29;3.20;51.70
40534;DHT22;26233;51.894;10.192;2023-01-29T10:47:13;3.30;52.00
40534;DHT22;26233;51.894;10.192;2023-01-29T10:50:03;3.40;51.90
40534;DHT22;26233;51.894;10.192;2023-01-29T10:52:48;3.50;51.90
40534;DHT22;26233;51.894;10.192;2023-01-29T10:55:31;3.50;51.70
40534;DHT22;26233;51.894;10.192;2023-01-29T10:58:11;3.60;51.70
40534;DHT22;26233;51.894;10.192;2023-01-29T11:00:48;3.60;51.40
40534;DHT22;26233;51.894;10.192;2023-01-29T11:03:20;3.60;51.80
40534;DHT22;26233;51.894;10.192;2023-01-29T11:05:54;3.70;52.00
40534;DHT22;26233;51.894;10.192;2023-01-29T11:08:32;3.80;51.90
40534;DHT22;26233;51.894;10.192;2023-01-29T11:11:07;3.80;51.90
40534;DHT22;26233;51.894;10.192;2023-01-29T11:13:44;3.90;52.20
40534;DHT22;26233;51.894;10.192;2023-01-29T11:16:14;3.90;51.90
40534;DHT22;26233;51.894;10.192;2023-01-29T11:18:52;3.90;52.20
40534;DHT22;26233;51.894;10.192;2023-01-29T11:21:22;4.00;52.10
40534;DHT22;26233;51.894;10.192;2023-01-29T11:23:50;4.10;52.30
40534;DHT22;26233;51.894;10.192;2023-01-29T11:26:34;4.10;52.10
40534;DHT22;26233;51.894;10.192;2023-01-29T11:29:32;4.10;52.00
40534;DHT22;26233;51.894;10.192;2023-01-29T11:32:05;4.10;51.40
40534;DHT22;26233;51.894;10.192;2023-01-29T11:34:33;4.20;51.90
40534;DHT22;26233;51.894;10.192;2023-01-29T11:37:04;4.20;51.80
40534;DHT22;26233;51.894;10.192;2023-01-29T11:39:44;4.20;51.60
40534;DHT22;26233;51.894;10.192;2023-01-29T11:42:19;4.20;51.90
40534;DHT22;26233;51.894;10.192;2023-01-29T11:44:48;4.20;51.80
40534;DHT22;26233;51.894;10.192;2023-01-29T11:47:19;4.30;51.80
40534;DHT22;26233;51.894;10.192;2023-01-29T11:49:50;4.30;51.70
40534;DHT22;26233;51.894;10.192;2023-01-29T11:52:21;4.30;51.80
40534;DHT22;26233;51.894;10.192;2023-01-29T11:54:53;4.30;51.50
40534;DHT22;26233;51.894;10.192;2023-01-29T11:57:27;4.30;51.40
40534;DHT22;26233;51.894;10.192;2023-01-29T11:59:59;4.40;51.40
40534;DHT22;26233;51.894;10.192;2023-01-29T12:02:32;4.40;51.10
40534;DHT22;26233;51.894;10.192;2023-01-29T12:05:05;4.30;51.00
40534;DHT22;26233;51.894;10.192;2023-01-29T12:07:40;4.30;51.30
40534;DHT22;26233;51.894;10.192;2023-01-29T12:10:29;4.30;51.50
40534;DHT22;26233;51.894;10.192;2023-01-29T12:13:03;4.30;51.20
40534;DHT22;26233;51.894;10.192;2023-01-29T12:15:33;4.30;51.20
40534;DHT22;26233;51.894;10.192;2023-01-29T12:18:05;4.30;51.30
40534;DHT22;26233;51.894;10.192;2023-01-29T12:20:38;4.30;51.20
40534;DHT22;26233;51.894;10.192;2023-01-29T12:23:20;4.30;51.40
40534;DHT22;26233;51.894;10.192;2023-01-29T12:25:59;4.30;51.40
40534;DHT22;26233;51.894;10.192;2023-01-29T12:28:35;4.30;51.20
40534;DHT22;26233;51.894;10.192;2023-01-29T12:31:17;4.30;51.20
40534;DHT22;26233;51.894;10.192;2023-01-29T12:33:52;4.30;51.00
40534;DHT22;26233;51.894;10.192;2023-01-29T12:36:26;4.30;51.30
40534;DHT22;26233;51.894;10.192;2023-01-29T12:38:57;4.30;51.30
40534;DHT22;26233;51.894;10.192;2023-01-29T12:41:32;4.30;51.20
40534;DHT22;26233;51.894;10.192;2023-01-29T12:44:06;4.20;50.90
40534;DHT22;26233;51.894;10.192;2023-01-29T12:46:42;4.20;51.00
40534;DHT22;26233;51.894;10.192;2023-01-29T12:49:18;4.20;51.00
40534;DHT22;26233;51.894;10.192;2023-01-29T12:51:54;4.20;51.10
40534;DHT22;26233;51.894;10.192;2023-01-29T12:54:30;4.20;50.90
40534;DHT22;26233;51.894;10.192;2023-01-29T12:57:03;4.10;50.70
40534;DHT22;26233;51.894;10.192;2023-01-29T12:59:39;4.10;50.80
40534;DHT22;26233;51.894;10.192;2023-01-29T13:02:19;4.00;50.40
40534;DHT22;26233;51.894;10.192;2023-01-29T13:04:56;4.00;50.70
40534;DHT22;26233;51.894;10.192;2023-01-29T13:07:33;4.00;50.70
40534;DHT22;26233;51.894;10.192;2023-01-29T13:10:08;4.00;50.70
40534;DHT22;26233;51.894;10.192;2023-01-29T13:12:39;3.90;50.80
40534;DHT22;26233;51.894;10.192;2023-01-29T13:15:21;3.90;50.90
40534;DHT22;26233;51.894;10.192;2023-01-29T13:17:54;3.90;50.70
40534;DHT22;26233;51.894;10.192;2023-01-29T13:20:26;3.90;50.80
40534;DHT22;26233;51.894;10.192;2023-01-29T13:22:57;3.90;50.90
40534;DHT22;26233;51.894;10.192;2023-01-29T13:25:27;3.90;51.10
40534;DHT22;26233;51.894;10.192;2023-01-29T13:27:57;3.90;51.20
40534;DHT22;26233;51.894;10.192;2023-01-29T13:30:28;3.90;51.20
40534;DHT22;26233;51.894;10.192;2023-01-29T13:33:00;4.00;51.30
40534;DHT22;26233;51.894;10.192;2023-01-29T13:35:35;4.00;51.70
40534;DHT22;26233;51.894;10.192;2023-01-29T13:38:04;4.00;51.00
40534;DHT22;26233;51.894;10.192;2023-01-29T13:40:35;3.90;50.90
40534;DHT22;26233;51.894;10.192;2023-01-29T13:43:04;3.90;50.80
40534;DHT22;26233;51.894;10.192;2023-01-29T13:45:44;4.00;50.90
40534;DHT22;26233;51.894;10.192;2023-01-29T13:48:21;3.90;50.80
40534;DHT22;26233;51.894;10.192;2023-01-29T13:50:52;3.90;50.80
40534;DHT22;26233;51.894;10.192;2023-01-29T13:53:22;3.90;50.90
40534;DHT22;26233;51.894;10.192;2023-01-29T13:55:54;3.90;50.90
40534;DHT22;26233;51.894;10.192;2023-01-29T13:58:51;3.80;50.80
40534;DHT22;26233;51.894;10.192;2023-01-29T14:04:30;3.80;50.50
40534;DHT22;26233;51.894;10.192;2023-01-29T14:06:59;3.80;50.60
40534;DHT22;26233;51.894;10.192;2023-01-29T14:12:50;3.80;50.40
40534;DHT22;26233;51.894;10.192;2023-01-29T14:15:26;3.80;50.80
40534;DHT22;26233;51.894;10.192;2023-01-29T14:18:25;3.80;50.60
40534;DHT22;26233;51.894;10.192;2023-01-29T14:21:02;3.80;50.40
40534;DHT22;26233;51.894;10.192;2023-01-29T14:23:43;3.80;50.80
40534;DHT22;26233;51.894;10.192;2023-01-29T14:26:21;3.80;50.80
40534;DHT22;26233;51.894;10.192;2023-01-29T14:28:55;3.80;50.60
40534;DHT22;26233;51.894;10.192;2023-01-29T14:31:29;3.80;50.80
40534;DHT22;26233;51.894;10.192;2023-01-29T14:34:11;3.70;50.50
40534;DHT22;26233;51.894;10.192;2023-01-29T14:36:43;3.70;50.60
40534;DHT22;26233;51.894;10.192;2023-01-29T14:39:21;3.70;50.80
40534;DHT22;26233;51.894;10.192;2023-01-29T14:41:51;3.70;50.60
40534;DHT22;26233;51.894;10.192;2023-01-29T14:44:46;3.70;50.80
40534;DHT22;26233;51.894;10.192;2023-01-29T14:47:20;3.70;50.10
40534;DHT22;26233;51.894;10.192;2023-01-29T14:49:49;3.70;50.70
40534;DHT22;26233;51.894;10.192;2023-01-29T14:52:21;3.70;50.80
40534;DHT22;26233;51.894;10.192;2023-01-29T14:54:52;3.70;50.80
40534;DHT22;26233;51.894;10.192;2023-01-29T14:57:23;3.70;50.80
40534;DHT22;26233;51.894;10.192;2023-01-29T14:59:54;3.70;50.80
40534;DHT22;26233;51.894;10.192;2023-01-29T15:02:26;3.70;50.80
40534;DHT22;26233;51.894;10.192;2023-01-29T15:04:59;3.70;50.70
40534;DHT22;26233;51.894;10.192;2023-01-29T15:07:34;3.80;50.90
40534;DHT22;26233;51.894;10.192;2023-01-29T15:10:15;3.70;50.60
40534;DHT22;26233;51.894;10.192;2023-01-29T15:12:46;3.80;50.70
40534;DHT22;26233;51.894;10.192;2023-01-29T15:15:17;3.80;50.80
40534;DHT22;26233;51.894;10.192;2023-01-29T15:17:53;3.80;50.90
40534;DHT22;26233;51.894;10.192;2023-01-29T15:20:28;3.80;51.40
40534;DHT22;26233;51.894;10.192;2023-01-29T15:22:59;3.70;50.70
40534;DHT22;26233;51.894;10.192;2023-01-29T15:25:30;3.80;50.80
40534;DHT22;26233;51.894;10.192;2023-01-29T15:28:02;3.80;50.70
40534;DHT22;26233;51.894;10.192;2023-01-29T15:30:33;3.80;50.70
40534;DHT22;26233;51.894;10.192;2023-01-29T15:33:02;3.80;50.80
40534;DHT22;26233;51.894;10.192;2023-01-29T15:35:34;3.80;50.80
40534;DHT22;26233;51.894;10.192;2023-01-29T15:38:05;3.80;50.80
40534;DHT22;26233;51.894;10.192;2023-01-29T15:40:38;3.80;50.70
40534;DHT22;26233;51.894;10.192;2023-01-29T15:43:21;3.80;50.80
40534;DHT22;26233;51.894;10.192;2023-01-29T15:45:50;3.80;50.70
40534;DHT22;26233;51.894;10.192;2023-01-29T15:48:20;3.80;50.70
40534;DHT22;26233;51.894;10.192;2023-01-29T15:50:55;3.80;50.70
40534;DHT22;26233;51.894;10.192;2023-01-29T15:53:29;3.70;50.50
40534;DHT22;26233;51.894;10.192;2023-01-29T15:55:59;3.70;50.50
40534;DHT22;26233;51.894;10.192;2023-01-29T15:58:29;3.70;50.60
40534;DHT22;26233;51.894;10.192;2023-01-29T16:00:58;3.70;50.60
40534;DHT22;26233;51.894;10.192;2023-01-29T16:03:27;3.70;50.50
40534;DHT22;26233;51.894;10.192;2023-01-29T16:05:57;3.70;50.70
40534;DHT22;26233;51.894;10.192;2023-01-29T16:08:26;3.70;50.80
40534;DHT22;26233;51.894;10.192;2023-01-29T16:10:55;3.70;50.80
40534;DHT22;26233;51.894;10.192;2023-01-29T16:13:26;3.70;50.80
40534;DHT22;26233;51.894;10.192;2023-01-29T16:15:58;3.70;50.80